createdAt,value
2019-04-27T00:01:05.244Z,100263.91
2019-04-27T00:03:41.493Z,100261.00
2019-04-27T00:06:13.524Z,100269.85
2019-04-27T00:08:48.434Z,100270.08
2019-04-27T00:11:22.668Z,100271.31
2019-04-27T00:13:53.603Z,100277.25
2019-04-27T00:16:46.964Z,100266.35
2019-04-27T00:19:31.829Z,100266.18
2019-04-27T00:22:08.588Z,100268.41
2019-04-27T00:24:37.727Z,100264.65
2019-04-27T00:27:06.727Z,100262.42
2019-04-27T00:29:35.432Z,100264.06
2019-04-27T00:32:04.449Z,100259.08
2019-04-27T00:34:33.964Z,100255.42
2019-04-27T00:37:13.627Z,100255.41
2019-04-27T00:39:48.554Z,100255.00
2019-04-27T00:42:17.254Z,100250.59
2019-04-27T00:44:46.631Z,100237.72
2019-04-27T00:47:15.348Z,100227.24
2019-04-27T00:49:44.405Z,100234.77
2019-04-27T00:52:13.907Z,100238.70
2019-04-27T00:54:44.158Z,100247.22
2019-04-27T00:57:34.387Z,100240.70
2019-04-27T01:00:21.105Z,100239.81
2019-04-27T01:03:04.275Z,100227.81
2019-04-27T01:05:33.873Z,100226.70
2019-04-27T01:08:03.790Z,100223.65
2019-04-27T01:10:33.581Z,100219.48
2019-04-27T01:13:03.309Z,100217.23
2019-04-27T01:15:33.971Z,100216.17
2019-04-27T01:18:11.933Z,100215.45
2019-04-27T01:20:34.354Z,100208.41
2019-04-27T01:23:03.049Z,100203.04
2019-04-27T01:25:45.644Z,100195.27
2019-04-27T01:28:29.083Z,100197.72
2019-04-27T01:31:02.307Z,100195.40
2019-04-27T01:33:30.935Z,100196.48
2019-04-27T01:35:59.628Z,100188.12
2019-04-27T01:38:29.119Z,100189.14
2019-04-27T01:41:00.662Z,100185.95
2019-04-27T01:43:30.238Z,100190.63
2019-04-27T01:46:01.066Z,100197.03
2019-04-27T01:48:30.602Z,100197.20
2019-04-27T01:51:00.031Z,100199.11
2019-04-27T01:53:30.410Z,100194.91
2019-04-27T01:55:59.620Z,100202.14
2019-04-27T01:58:29.295Z,100199.27
2019-04-27T02:01:18.618Z,100199.83
2019-04-27T02:04:10.102Z,100197.91
2019-04-27T02:06:39.527Z,100198.07
2019-04-27T02:09:12.663Z,100204.86
2019-04-27T02:11:41.656Z,100205.28
2019-04-27T02:14:10.892Z,100190.69
2019-04-27T02:16:39.851Z,100191.17
2019-04-27T02:19:09.006Z,100192.30
2019-04-27T02:21:39.287Z,100184.00
2019-04-27T02:24:09.779Z,100178.61
2019-04-27T02:26:39.844Z,100173.62
2019-04-27T02:29:18.902Z,100182.68
2019-04-27T02:32:05.596Z,100184.27
2019-04-27T02:34:41.994Z,100180.13
2019-04-27T02:37:11.038Z,100177.42
2019-04-27T02:39:40.057Z,100178.22
2019-04-27T02:42:10.144Z,100179.09
2019-04-27T02:44:40.849Z,100172.66
2019-04-27T02:47:10.654Z,100173.38
2019-04-27T02:49:40.595Z,100172.02
2019-04-27T02:52:29.808Z,100175.84
2019-04-27T02:54:59.353Z,100176.41
2019-04-27T02:57:30.120Z,100172.84
2019-04-27T03:00:00.000Z,100171.53
2019-04-27T03:02:35.262Z,100168.75
2019-04-27T03:05:04.756Z,100167.62
2019-04-27T03:07:33.870Z,100163.90
2019-04-27T03:10:02.944Z,100162.75
2019-04-27T03:12:41.993Z,100163.11
2019-04-27T03:15:22.937Z,100155.60
2019-04-27T03:18:02.814Z,100148.49
2019-04-27T03:20:40.476Z,100148.66
2019-04-27T03:23:10.982Z,100154.73
2019-04-27T03:25:51.831Z,100155.25
2019-04-27T03:28:20.532Z,100151.65
2019-04-27T03:30:52.220Z,100142.42
2019-04-27T03:33:22.277Z,100140.83
2019-04-27T03:35:52.545Z,100141.83
2019-04-27T03:38:20.914Z,100138.84
2019-04-27T03:40:52.723Z,100133.72
2019-04-27T03:43:25.186Z,100138.35
2019-04-27T03:45:55.343Z,100129.45
2019-04-27T03:48:24.416Z,100135.83
2019-04-27T03:51:11.378Z,100138.75
2019-04-27T03:54:00.485Z,100124.98
2019-04-27T03:56:39.520Z,100120.34
2019-04-27T03:59:13.395Z,100124.42
2019-04-27T04:01:42.599Z,100115.98
2019-04-27T04:04:11.413Z,100117.91
2019-04-27T04:06:40.787Z,100119.91
2019-04-27T04:09:10.453Z,100118.47
2019-04-27T04:11:46.186Z,100130.11
2019-04-27T04:14:20.281Z,100132.35
2019-04-27T04:17:02.905Z,100135.13
2019-04-27T04:19:47.389Z,100134.66
2019-04-27T04:22:02.159Z,100132.11
2019-04-27T04:24:31.917Z,100141.22
2019-04-27T04:27:01.318Z,100140.26
2019-04-27T04:29:30.782Z,100147.99
2019-04-27T04:32:00.577Z,100137.38
2019-04-27T04:34:30.016Z,100145.53
2019-04-27T04:37:00.413Z,100147.64
2019-04-27T04:39:29.775Z,100142.25
2019-04-27T04:42:10.655Z,100146.77
2019-04-27T04:45:00.223Z,100146.06
2019-04-27T04:47:45.388Z,100148.38
2019-04-27T04:50:15.682Z,100145.09
2019-04-27T04:52:44.989Z,100147.33
2019-04-27T04:55:15.921Z,100154.67
2019-04-27T04:57:44.735Z,100147.09
2019-04-27T05:00:14.902Z,100154.65
2019-04-27T05:02:44.653Z,100165.63
2019-04-27T05:05:13.866Z,100154.57
2019-04-27T05:07:43.752Z,100152.25
2019-04-27T05:10:13.936Z,100145.26
2019-04-27T05:12:45.216Z,100152.09
2019-04-27T05:15:15.444Z,100154.65
2019-04-27T05:17:45.170Z,100151.17
2019-04-27T05:20:30.217Z,100153.73
2019-04-27T05:22:59.851Z,100149.92
2019-04-27T05:25:30.395Z,100152.12
2019-04-27T05:28:00.310Z,100155.07
2019-04-27T05:30:39.100Z,100150.23
2019-04-27T05:33:09.025Z,100152.19
2019-04-27T05:35:41.068Z,100148.20
2019-04-27T05:38:13.460Z,100151.34
2019-04-27T05:40:42.814Z,100148.09
2019-04-27T05:43:20.226Z,100145.30
2019-04-27T05:46:39.927Z,100141.73
2019-04-27T05:49:18.795Z,100143.42
2019-04-27T05:51:50.177Z,100140.00
2019-04-27T05:54:20.558Z,100133.09
2019-04-27T05:56:49.352Z,100133.58
2019-04-27T05:59:19.825Z,100125.86
2019-04-27T06:01:49.579Z,100125.09
2019-04-27T06:04:19.390Z,100123.93
2019-04-27T06:06:49.927Z,100123.21
2019-04-27T06:09:19.436Z,100119.34
2019-04-27T06:11:50.402Z,100124.87
2019-04-27T06:14:19.358Z,100118.03
2019-04-27T06:16:51.012Z,100124.00
2019-04-27T06:19:19.517Z,100113.05
2019-04-27T06:21:50.001Z,100109.29
2019-04-27T06:24:19.569Z,100116.42
2019-04-27T06:26:49.820Z,100111.19
2019-04-27T06:29:19.536Z,100106.88
2019-04-27T06:31:49.663Z,100105.59
2019-04-27T06:34:19.402Z,100106.48
2019-04-27T06:36:50.530Z,100101.00
2019-04-27T06:39:20.595Z,100099.26
2019-04-27T06:41:49.420Z,100088.79
2019-04-27T06:44:19.963Z,100088.32
2019-04-27T06:46:49.309Z,100083.77
2019-04-27T06:49:19.496Z,100075.16
2019-04-27T06:51:49.769Z,100070.06
2019-04-27T06:54:21.224Z,100070.59
2019-04-27T06:56:51.103Z,100061.11
2019-04-27T06:59:21.350Z,100066.52
2019-04-27T07:01:51.857Z,100060.53
2019-04-27T07:04:21.340Z,100065.05
2019-04-27T07:06:56.152Z,100062.69
2019-04-27T07:09:26.030Z,100057.70
2019-04-27T07:11:56.041Z,100055.95
2019-04-27T07:14:25.443Z,100051.44
2019-04-27T07:16:55.361Z,100052.36
2019-04-27T07:19:25.006Z,100052.33
2019-04-27T07:21:54.528Z,100040.85
2019-04-27T07:24:23.550Z,100045.02
2019-04-27T07:26:53.096Z,100044.92
2019-04-27T07:29:24.325Z,100037.28
2019-04-27T07:31:55.086Z,100039.02
2019-04-27T07:34:24.387Z,100041.66
2019-04-27T07:36:54.577Z,100038.55
2019-04-27T07:39:23.238Z,100029.35
2019-04-27T07:41:52.028Z,100028.19
2019-04-27T07:44:46.654Z,100030.59
2019-04-27T07:47:22.358Z,100034.51
2019-04-27T07:49:51.848Z,100021.01
2019-04-27T07:52:20.777Z,100019.27
2019-04-27T07:54:50.010Z,100017.46
2019-04-27T07:57:21.406Z,100015.81
2019-04-27T07:59:50.396Z,100020.06
2019-04-27T08:02:19.255Z,100016.34
2019-04-27T08:04:50.284Z,100012.77
2019-04-27T08:07:19.819Z,100014.56
2019-04-27T08:09:49.603Z,100012.99
2019-04-27T08:12:20.938Z,100010.28
2019-04-27T08:14:52.092Z,100012.64
2019-04-27T08:17:20.777Z,100004.61
2019-04-27T08:19:49.810Z,99999.13
2019-04-27T08:22:19.351Z,99997.00
2019-04-27T08:24:49.648Z,100011.52
2019-04-27T08:27:24.836Z,100008.89
2019-04-27T08:30:04.244Z,100011.55
2019-04-27T08:32:37.005Z,100003.41
2019-04-27T08:35:06.940Z,100002.14
2019-04-27T08:37:35.629Z,99999.40
2019-04-27T08:40:05.319Z,100007.97
2019-04-27T08:42:33.995Z,99998.48
2019-04-27T08:45:02.680Z,100004.28
2019-04-27T08:47:31.330Z,99995.80
2019-04-27T08:50:00.018Z,99994.45
2019-04-27T08:52:29.073Z,99990.45
2019-04-27T08:54:59.447Z,99983.19
2019-04-27T08:57:28.996Z,99983.53
2019-04-27T08:59:59.652Z,99974.48
2019-04-27T09:02:39.789Z,99976.86
2019-04-27T09:04:59.663Z,99983.43
2019-04-27T09:07:36.890Z,99969.28
2019-04-27T09:10:22.554Z,99965.23
2019-04-27T09:13:03.952Z,99961.59
2019-04-27T09:15:40.693Z,99950.78
2019-04-27T09:18:09.956Z,99949.27
2019-04-27T09:20:45.058Z,99947.81
2019-04-27T09:23:13.805Z,99948.41
2019-04-27T09:25:42.554Z,99944.77
2019-04-27T09:28:11.246Z,99944.97
2019-04-27T09:30:39.989Z,99944.30
2019-04-27T09:33:08.800Z,99925.63
2019-04-27T09:35:37.566Z,99926.03
2019-04-27T09:38:07.110Z,99919.94
2019-04-27T09:40:36.141Z,99916.41
2019-04-27T09:43:04.969Z,99921.62
2019-04-27T09:45:33.640Z,99923.80
2019-04-27T09:48:02.299Z,99909.66
2019-04-27T09:50:31.178Z,99902.16
2019-04-27T09:52:59.854Z,99914.98
2019-04-27T09:55:28.501Z,99910.01
2019-04-27T09:57:57.199Z,99898.19
2019-04-27T10:00:27.809Z,99891.64
2019-04-27T10:02:56.680Z,99891.95
2019-04-27T10:05:26.361Z,99899.52
2019-04-27T10:07:56.894Z,99907.22
2019-04-27T10:10:26.781Z,99909.87
2019-04-27T10:12:56.801Z,99904.56
2019-04-27T10:15:26.712Z,99906.41
2019-04-27T10:17:57.633Z,99901.47
2019-04-27T10:20:26.287Z,99903.82
2019-04-27T10:22:56.473Z,99896.36
2019-04-27T10:25:27.094Z,99893.58
2019-04-27T10:27:58.902Z,99894.75
2019-04-27T10:30:28.706Z,99906.45
2019-04-27T10:32:57.717Z,99912.56
2019-04-27T10:35:26.448Z,99923.28
2019-04-27T10:37:55.498Z,99924.57
2019-04-27T10:40:26.235Z,99927.22
2019-04-27T10:42:56.089Z,99933.39
2019-04-27T10:45:25.269Z,99937.20
2019-04-27T10:47:54.027Z,99921.73
2019-04-27T10:50:26.577Z,99924.95
2019-04-27T10:52:59.103Z,99923.40
2019-04-27T10:55:28.091Z,99926.75
2019-04-27T10:57:56.765Z,99918.30
2019-04-27T11:00:32.902Z,99921.09
2019-04-27T11:03:01.827Z,99922.91
2019-04-27T11:05:43.182Z,99912.03
2019-04-27T11:08:12.522Z,99912.34
2019-04-27T11:10:41.267Z,99914.97
2019-04-27T11:13:11.211Z,99918.22
2019-04-27T11:15:40.738Z,99914.56
2019-04-27T11:18:09.494Z,99907.74
2019-04-27T11:20:38.729Z,99914.51
2019-04-27T11:23:12.108Z,99919.34
2019-04-27T11:25:39.200Z,99909.64
2019-04-27T11:28:08.196Z,99920.68
2019-04-27T11:30:37.371Z,99915.57
2019-04-27T11:33:06.356Z,99905.87
2019-04-27T11:35:46.936Z,99912.63
2019-04-27T11:38:16.750Z,99905.36
2019-04-27T11:40:46.661Z,99909.66
2019-04-27T11:43:16.197Z,99907.20
2019-04-27T11:45:45.766Z,99907.78
2019-04-27T11:48:16.152Z,99909.44
2019-04-27T11:50:45.986Z,99907.48
2019-04-27T11:53:22.592Z,99903.39
2019-04-27T11:55:46.484Z,99913.91
2019-04-27T11:58:16.491Z,99920.38
2019-04-27T12:00:45.313Z,99918.53
2019-04-27T12:03:14.295Z,99924.20
2019-04-27T12:05:43.241Z,99927.72
2019-04-27T12:08:11.936Z,99932.58
2019-04-27T12:10:40.620Z,99932.09
2019-04-27T12:13:09.303Z,99937.78
2019-04-27T12:15:38.267Z,99930.19
2019-04-27T12:18:09.011Z,99937.69
2019-04-27T12:20:37.452Z,99928.42
2019-04-27T12:23:06.503Z,99935.87
2019-04-27T12:25:37.318Z,99933.92
2019-04-27T12:28:29.987Z,99932.74
2019-04-27T12:31:08.806Z,99930.76
2019-04-27T12:33:37.371Z,99933.02
2019-04-27T12:36:07.030Z,99931.89
2019-04-27T12:38:36.573Z,99929.81
2019-04-27T12:41:06.748Z,99922.17
2019-04-27T12:43:37.416Z,99917.18
2019-04-27T12:46:06.425Z,99919.03
2019-04-27T12:48:37.209Z,99914.55
2019-04-27T12:51:06.268Z,99912.90
2019-04-27T12:53:50.734Z,99906.44
2019-04-27T12:56:19.055Z,99913.11
2019-04-27T12:59:06.850Z,99905.09
2019-04-27T13:01:36.106Z,99899.97
2019-04-27T13:04:05.170Z,99901.11
2019-04-27T13:06:35.717Z,99900.28
2019-04-27T13:09:07.184Z,99906.52
2019-04-27T13:11:36.617Z,99902.60
2019-04-27T13:14:06.199Z,99902.83
2019-04-27T13:16:34.983Z,99902.83
2019-04-27T13:19:06.044Z,99898.95
2019-04-27T13:21:36.554Z,99901.75
2019-04-27T13:24:07.006Z,99892.70
2019-04-27T13:26:36.223Z,99897.76
2019-04-27T13:29:06.847Z,99906.23
2019-04-27T13:31:36.925Z,99904.31
2019-04-27T13:34:05.838Z,99902.81
2019-04-27T13:36:34.513Z,99900.19
2019-04-27T13:39:03.840Z,99889.99
2019-04-27T13:41:32.959Z,99885.18
2019-04-27T13:44:01.643Z,99884.78
2019-04-27T13:46:49.438Z,99884.16
2019-04-27T13:49:39.916Z,99880.58
2019-04-27T13:52:16.105Z,99876.86
2019-04-27T13:54:45.902Z,99871.58
2019-04-27T13:57:16.438Z,99872.34
2019-04-27T13:59:45.067Z,99873.40
2019-04-27T14:02:15.677Z,99870.48
2019-04-27T14:04:44.464Z,99867.66
2019-04-27T14:07:13.180Z,99874.72
2019-04-27T14:09:41.844Z,99937.16
2019-04-27T14:12:28.574Z,99916.42
2019-04-27T14:14:59.087Z,99925.08
2019-04-27T14:18:04.037Z,99930.52
2019-04-27T14:20:45.282Z,99941.03
2019-04-27T14:23:26.222Z,99942.07
2019-04-27T14:25:55.913Z,99947.13
2019-04-27T14:28:26.270Z,99956.03
2019-04-27T14:31:00.222Z,99955.18
2019-04-27T14:33:31.776Z,99961.70
2019-04-27T14:36:02.552Z,99958.68
2019-04-27T14:38:31.550Z,99962.96
2019-04-27T14:41:02.121Z,99961.33
2019-04-27T14:43:32.316Z,99955.45
2019-04-27T14:46:03.025Z,99967.80
2019-04-27T14:48:32.172Z,99972.16
2019-04-27T14:51:03.301Z,99963.80
2019-04-27T14:53:32.587Z,99974.03
2019-04-27T14:56:02.106Z,99970.41
2019-04-27T14:58:32.932Z,99974.70
2019-04-27T15:01:02.555Z,99977.54
2019-04-27T15:03:31.880Z,99981.05
2019-04-27T15:06:00.920Z,99981.94
2019-04-27T15:08:30.560Z,100000.23
2019-04-27T15:11:01.868Z,99986.54
2019-04-27T15:13:56.833Z,99986.83
2019-04-27T15:16:26.398Z,99988.36
2019-04-27T15:18:59.955Z,99997.53
2019-04-27T15:21:32.644Z,99993.69
2019-04-27T15:24:09.395Z,100005.80
2019-04-27T15:26:33.748Z,100002.55
2019-04-27T15:29:04.637Z,100002.45
2019-04-27T15:31:38.803Z,99994.55
2019-04-27T15:34:16.259Z,99986.12
2019-04-27T15:37:03.002Z,99988.38
2019-04-27T15:39:58.316Z,99979.81
2019-04-27T15:42:34.813Z,99978.95
2019-04-27T15:45:06.001Z,99985.84
2019-04-27T15:47:35.167Z,99986.16
2019-04-27T15:50:04.724Z,99985.98
2019-04-27T15:52:33.372Z,99986.09
2019-04-27T15:55:02.838Z,100002.31
2019-04-27T15:57:33.376Z,100005.95
2019-04-27T16:00:02.077Z,100001.97
2019-04-27T16:02:31.451Z,100000.69
2019-04-27T16:05:00.819Z,100014.63
2019-04-27T16:07:32.033Z,100019.25
2019-04-27T16:10:02.765Z,100009.40
2019-04-27T16:12:34.541Z,100003.18
2019-04-27T16:15:05.072Z,100007.24
2019-04-27T16:17:33.053Z,100002.45
2019-04-27T16:20:01.863Z,100001.78
2019-04-27T16:22:30.960Z,99996.23
2019-04-27T16:24:59.665Z,99986.69
2019-04-27T16:27:31.431Z,99976.91
2019-04-27T16:30:04.703Z,99982.61
2019-04-27T16:32:29.274Z,100002.30
2019-04-27T16:34:59.266Z,100012.47
2019-04-27T16:37:38.804Z,100021.03
2019-04-27T16:40:08.394Z,100016.75
2019-04-27T16:42:38.363Z,100021.43
2019-04-27T16:45:08.681Z,100025.91
2019-04-27T16:47:38.377Z,100034.56
2019-04-27T16:50:08.318Z,100034.09
2019-04-27T16:52:38.923Z,100038.77
2019-04-27T16:55:08.683Z,100045.10
2019-04-27T16:57:40.026Z,100058.53
2019-04-27T17:00:11.682Z,100062.59
2019-04-27T17:02:40.423Z,100070.63
2019-04-27T17:05:09.376Z,100073.61
2019-04-27T17:07:41.728Z,100059.21
2019-04-27T17:10:09.507Z,100057.36
2019-04-27T17:12:43.256Z,100054.05
2019-04-27T17:15:53.713Z,100053.14
2019-04-27T17:18:24.293Z,100045.88
2019-04-27T17:20:59.411Z,100036.66
2019-04-27T17:23:31.681Z,100044.80
2019-04-27T17:26:09.375Z,100049.16
2019-04-27T17:28:40.172Z,100049.86
2019-04-27T17:31:12.910Z,100057.77
2019-04-27T17:33:48.686Z,100065.23
2019-04-27T17:36:16.532Z,100059.21
2019-04-27T17:38:47.348Z,100054.05
2019-04-27T17:41:15.901Z,100059.06
2019-04-27T17:43:48.165Z,100057.51
2019-04-27T17:46:25.228Z,100064.52
2019-04-27T17:49:08.448Z,100067.92
2019-04-27T17:51:45.453Z,100070.20
2019-04-27T17:54:15.184Z,100082.07
2019-04-27T17:56:52.318Z,100079.04
2019-04-27T17:59:37.503Z,100070.23
2019-04-27T18:02:20.446Z,100072.52
2019-04-27T18:04:53.160Z,100073.12
2019-04-27T18:08:08.346Z,100081.05
2019-04-27T18:10:53.640Z,100077.36
2019-04-27T18:13:25.583Z,100084.44
2019-04-27T18:15:58.985Z,100080.22
2019-04-27T18:18:48.678Z,100083.38
2019-04-27T18:21:21.990Z,100087.72
2019-04-27T18:24:01.585Z,100100.30
2019-04-27T18:27:04.437Z,100106.56
2019-04-27T18:29:59.294Z,100105.51
2019-04-27T18:32:40.379Z,100102.96
2019-04-27T18:35:14.057Z,100107.77
2019-04-27T18:37:53.657Z,100115.05
2019-04-27T18:40:32.548Z,100132.52
2019-04-27T18:43:09.619Z,100137.16
2019-04-27T18:45:44.891Z,100137.16
2019-04-27T18:48:37.744Z,100132.33
2019-04-27T18:51:48.328Z,100128.94
2019-04-27T18:54:41.853Z,100140.36
2019-04-27T18:57:38.682Z,100145.27
2019-04-27T19:00:17.748Z,100145.10
2019-04-27T19:02:58.364Z,100145.53
2019-04-27T19:05:52.151Z,100148.79
2019-04-27T19:08:49.375Z,100149.50
2019-04-27T19:11:24.155Z,100156.52
2019-04-27T19:14:28.225Z,100157.16
2019-04-27T19:17:03.726Z,100163.78
2019-04-27T19:22:38.594Z,100164.33
2019-04-27T19:25:15.113Z,100172.69
2019-04-27T19:31:21.634Z,100184.41
2019-04-27T19:34:13.054Z,100181.53
2019-04-27T19:36:46.048Z,100175.16
2019-04-27T19:39:21.970Z,100166.73
2019-04-27T19:42:06.430Z,100169.59
2019-04-27T19:44:44.044Z,100165.64
2019-04-27T19:47:16.636Z,100160.38
2019-04-27T19:49:52.271Z,100162.83
2019-04-27T19:52:30.386Z,100162.84
2019-04-27T19:55:09.283Z,100166.16
2019-04-27T19:57:44.371Z,100170.44
2019-04-27T20:00:35.845Z,100177.87
2019-04-27T20:03:20.104Z,100182.84
2019-04-27T20:06:30.472Z,100187.50
2019-04-27T20:09:11.897Z,100185.97
2019-04-27T20:11:50.431Z,100188.23
2019-04-27T20:14:25.549Z,100189.23
2019-04-27T20:17:02.297Z,100195.53
2019-04-27T20:19:37.245Z,100210.17
2019-04-27T20:22:12.943Z,100205.11
2019-04-27T20:24:46.116Z,100209.98
2019-04-27T20:27:21.052Z,100198.68
2019-04-27T20:30:03.035Z,100198.68
2019-04-27T20:32:37.757Z,100207.23
2019-04-27T20:35:11.867Z,100208.66
2019-04-27T20:37:45.641Z,100213.22
2019-04-27T20:40:21.775Z,100220.34
2019-04-27T20:42:57.573Z,100215.56
2019-04-27T20:46:02.603Z,100226.11
2019-04-27T20:48:34.072Z,100234.67
2019-04-27T20:51:12.583Z,100230.28
2019-04-27T20:53:49.055Z,100236.59
2019-04-27T20:56:32.478Z,100235.09
2019-04-27T20:59:15.512Z,100236.62
2019-04-27T21:01:52.161Z,100234.35
2019-04-27T21:04:32.389Z,100238.55
2019-04-27T21:07:08.041Z,100238.02
2019-04-27T21:09:46.873Z,100243.00
2019-04-27T21:12:27.978Z,100240.16
2019-04-27T21:15:21.481Z,100243.59
2019-04-27T21:17:57.283Z,100246.38
2019-04-27T21:21:03.468Z,100244.11
2019-04-27T21:23:44.946Z,100249.12
2019-04-27T21:26:13.703Z,100251.95
2019-04-27T21:28:43.304Z,100267.09
2019-04-27T21:31:12.927Z,100267.09
2019-04-27T21:33:42.299Z,100262.00
2019-04-27T21:36:11.831Z,100263.44
2019-04-27T21:38:42.887Z,100259.05
2019-04-27T21:41:11.598Z,100261.80
2019-04-27T21:43:42.104Z,100267.92
2019-04-27T21:46:10.708Z,100267.50
2019-04-27T21:48:41.422Z,100276.27
2019-04-27T21:51:11.714Z,100270.67
2019-04-27T21:53:58.052Z,100276.14
2019-04-27T21:56:27.448Z,100276.66
2019-04-27T21:58:56.129Z,100272.79
2019-04-27T22:01:28.896Z,100273.70
2019-04-27T22:03:57.607Z,100277.28
2019-04-27T22:06:26.672Z,100276.12
2019-04-27T22:08:55.828Z,100282.01
2019-04-27T22:11:24.670Z,100276.76
2019-04-27T22:13:53.401Z,100281.32
2019-04-27T22:16:22.755Z,100279.20
2019-04-27T22:18:52.566Z,100283.96
2019-04-27T22:21:22.282Z,100277.55
2019-04-27T22:24:00.985Z,100282.63
2019-04-27T22:26:31.473Z,100285.39
2019-04-27T22:29:01.590Z,100288.94
2019-04-27T22:31:31.406Z,100295.34
2019-04-27T22:34:01.754Z,100295.76
2019-04-27T22:36:30.751Z,100294.22
2019-04-27T22:39:03.895Z,100298.45
2019-04-27T22:41:41.714Z,100291.25
2019-04-27T22:44:29.193Z,100292.38
2019-04-27T22:46:59.096Z,100306.03
2019-04-27T22:49:28.827Z,100307.87
2019-04-27T22:51:57.794Z,100310.41
2019-04-27T22:54:26.853Z,100311.52
2019-04-27T22:56:58.177Z,100317.41
2019-04-27T22:59:36.590Z,100316.98
2019-04-27T23:02:13.681Z,100311.66
2019-04-27T23:04:46.435Z,100315.30
2019-04-27T23:07:15.187Z,100319.80
2019-04-27T23:09:44.512Z,100318.37
2019-04-27T23:12:14.100Z,100323.58
2019-04-27T23:14:42.854Z,100327.97
2019-04-27T23:17:38.161Z,100326.77
2019-04-27T23:20:07.210Z,100324.23
2019-04-27T23:22:36.263Z,100325.44
2019-04-27T23:25:07.697Z,100325.66
2019-04-27T23:27:36.645Z,100324.02
2019-04-27T23:30:06.024Z,100332.49
2019-04-27T23:32:41.357Z,100321.91
2019-04-27T23:35:10.581Z,100326.88
2019-04-27T23:37:39.296Z,100328.31
2019-04-27T23:40:08.439Z,100325.88
2019-04-27T23:42:37.178Z,100330.47
2019-04-27T23:45:06.822Z,100335.33
2019-04-27T23:47:35.593Z,100333.88
2019-04-27T23:50:04.908Z,100325.02
2019-04-27T23:52:52.614Z,100326.97
2019-04-27T23:55:22.934Z,100326.66
2019-04-27T23:57:51.675Z,100333.70
